sensor_id;sensor_type;location;lat;lon;timestamp;temperature;humidity
2409;DHT22;8463;48.094;7.970;2023-06-22T00:02:27;22.10;1.00
2409;DHT22;8463;48.094;7.970;2023-06-22T00:04:52;22.20;1.00
2409;DHT22;8463;48.094;7.970;2023-06-22T00:07:18;22.20;1.00
2409;DHT22;8463;48.094;7.970;2023-06-22T00:09:44;22.30;1.00
2409;DHT22;8463;48.094;7.970;2023-06-22T00:12:10;22.30;1.00
2409;DHT22;8463;48.094;7.970;2023-06-22T00:14:38;22.30;1.00
2409;DHT22;8463;48.094;7.970;2023-06-22T00:17:03;22.20;1.00
2409;DHT22;8463;48.094;7.970;2023-06-22T00:19:31;22.20;1.00
2409;DHT22;8463;48.094;7.970;2023-06-22T00:22:00;22.20;1.00
2409;DHT22;8463;48.094;7.970;2023-06-22T00:24:25;22.20;1.00
2409;DHT22;8463;48.094;7.970;2023-06-22T00:29:17;22.10;1.00
2409;DHT22;8463;48.094;7.970;2023-06-22T00:31:43;22.10;1.00
2409;DHT22;8463;48.094;7.970;2023-06-22T00:34:09;22.10;1.00
2409;DHT22;8463;48.094;7.970;2023-06-22T00:36:36;22.20;1.00
2409;DHT22;8463;48.094;7.970;2023-06-22T00:39:02;22.10;1.00
2409;DHT22;8463;48.094;7.970;2023-06-22T00:41:32;22.10;1.00
2409;DHT22;8463;48.094;7.970;2023-06-22T00:43:57;22.10;1.00
2409;DHT22;8463;48.094;7.970;2023-06-22T00:46:24;22.00;1.00
2409;DHT22;8463;48.094;7.970;2023-06-22T00:48:51;21.90;1.00
2409;DHT22;8463;48.094;7.970;2023-06-22T00:51:17;21.90;1.00
2409;DHT22;8463;48.094;7.970;2023-06-22T00:53:50;21.80;1.00
2409;DHT22;8463;48.094;7.970;2023-06-22T00:56:16;21.50;1.00
2409;DHT22;8463;48.094;7.970;2023-06-22T00:58:45;21.40;1.00
2409;DHT22;8463;48.094;7.970;2023-06-22T01:01:12;21.40;1.00
2409;DHT22;8463;48.094;7.970;2023-06-22T01:03:40;21.40;1.00
2409;DHT22;8463;48.094;7.970;2023-06-22T01:06:10;21.40;1.00
2409;DHT22;8463;48.094;7.970;2023-06-22T01:08:51;21.40;1.00
2409;DHT22;8463;48.094;7.970;2023-06-22T01:11:26;21.50;1.00
2409;DHT22;8463;48.094;7.970;2023-06-22T01:16:31;21.50;1.00
2409;DHT22;8463;48.094;7.970;2023-06-22T01:19:01;21.50;1.00
2409;DHT22;8463;48.094;7.970;2023-06-22T01:24:18;21.50;1.00
2409;DHT22;8463;48.094;7.970;2023-06-22T01:29:51;21.40;1.00
2409;DHT22;8463;48.094;7.970;2023-06-22T01:32:18;21.40;1.00
2409;DHT22;8463;48.094;7.970;2023-06-22T01:34:45;21.40;1.00
2409;DHT22;8463;48.094;7.970;2023-06-22T01:37:12;21.30;1.00
2409;DHT22;8463;48.094;7.970;2023-06-22T01:39:39;21.30;1.00
2409;DHT22;8463;48.094;7.970;2023-06-22T01:42:05;21.10;1.00
2409;DHT22;8463;48.094;7.970;2023-06-22T01:44:32;21.10;1.00
2409;DHT22;8463;48.094;7.970;2023-06-22T01:46:58;21.10;1.00
2409;DHT22;8463;48.094;7.970;2023-06-22T01:49:25;21.10;1.00
2409;DHT22;8463;48.094;7.970;2023-06-22T01:51:51;21.10;1.00
2409;DHT22;8463;48.094;7.970;2023-06-22T01:54:19;21.00;1.00
2409;DHT22;8463;48.094;7.970;2023-06-22T01:56:45;21.10;1.00
2409;DHT22;8463;48.094;7.970;2023-06-22T01:59:27;21.10;1.00
2409;DHT22;8463;48.094;7.970;2023-06-22T02:02:06;21.10;1.00
2409;DHT22;8463;48.094;7.970;2023-06-22T02:04:51;21.10;1.00
2409;DHT22;8463;48.094;7.970;2023-06-22T02:07:22;21.00;1.00
2409;DHT22;8463;48.094;7.970;2023-06-22T02:09:49;21.00;1.00
2409;DHT22;8463;48.094;7.970;2023-06-22T02:12:21;21.00;1.00
2409;DHT22;8463;48.094;7.970;2023-06-22T02:14:48;21.00;1.00
2409;DHT22;8463;48.094;7.970;2023-06-22T02:19:41;20.90;1.00
2409;DHT22;8463;48.094;7.970;2023-06-22T02:22:07;20.80;1.00
2409;DHT22;8463;48.094;7.970;2023-06-22T02:24:33;20.80;1.00
2409;DHT22;8463;48.094;7.970;2023-06-22T02:26:59;20.80;1.00
2409;DHT22;8463;48.094;7.970;2023-06-22T02:29:25;20.80;1.00
2409;DHT22;8463;48.094;7.970;2023-06-22T02:31:52;20.70;1.00
2409;DHT22;8463;48.094;7.970;2023-06-22T02:34:18;20.70;1.00
2409;DHT22;8463;48.094;7.970;2023-06-22T02:36:48;20.80;1.00
2409;DHT22;8463;48.094;7.970;2023-06-22T02:39:22;20.80;1.00
2409;DHT22;8463;48.094;7.970;2023-06-22T02:41:52;20.80;1.00
2409;DHT22;8463;48.094;7.970;2023-06-22T02:44:18;20.80;1.00
2409;DHT22;8463;48.094;7.970;2023-06-22T02:46:45;20.80;1.00
2409;DHT22;8463;48.094;7.970;2023-06-22T02:49:11;20.80;1.00
2409;DHT22;8463;48.094;7.970;2023-06-22T02:51:41;20.70;1.00
2409;DHT22;8463;48.094;7.970;2023-06-22T02:54:07;20.70;1.00
2409;DHT22;8463;48.094;7.970;2023-06-22T02:58:58;20.60;1.00
2409;DHT22;8463;48.094;7.970;2023-06-22T03:01:27;20.60;1.00
2409;DHT22;8463;48.094;7.970;2023-06-22T03:06:24;20.60;1.00
2409;DHT22;8463;48.094;7.970;2023-06-22T03:09:01;20.60;1.00
2409;DHT22;8463;48.094;7.970;2023-06-22T03:11:34;20.60;1.00
2409;DHT22;8463;48.094;7.970;2023-06-22T03:14:00;20.60;1.00
2409;DHT22;8463;48.094;7.970;2023-06-22T03:16:29;20.70;1.00
2409;DHT22;8463;48.094;7.970;2023-06-22T03:21:25;20.70;1.00
2409;DHT22;8463;48.094;7.970;2023-06-22T03:23:50;20.40;1.00
2409;DHT22;8463;48.094;7.970;2023-06-22T03:26:17;20.50;1.00
2409;DHT22;8463;48.094;7.970;2023-06-22T03:28:43;20.50;1.00
2409;DHT22;8463;48.094;7.970;2023-06-22T03:31:09;20.70;1.00
2409;DHT22;8463;48.094;7.970;2023-06-22T03:33:38;20.60;1.00
2409;DHT22;8463;48.094;7.970;2023-06-22T03:36:03;20.60;1.00
2409;DHT22;8463;48.094;7.970;2023-06-22T03:38:29;20.50;1.00
2409;DHT22;8463;48.094;7.970;2023-06-22T03:40:55;20.50;1.00
2409;DHT22;8463;48.094;7.970;2023-06-22T03:43:23;20.50;1.00
2409;DHT22;8463;48.094;7.970;2023-06-22T03:45:48;20.40;1.00
2409;DHT22;8463;48.094;7.970;2023-06-22T03:48:14;20.40;1.00
2409;DHT22;8463;48.094;7.970;2023-06-22T03:50:48;20.40;1.00
2409;DHT22;8463;48.094;7.970;2023-06-22T03:53:14;20.40;1.00
2409;DHT22;8463;48.094;7.970;2023-06-22T03:55:50;20.50;1.00
2409;DHT22;8463;48.094;7.970;2023-06-22T03:58:16;20.60;1.00
2409;DHT22;8463;48.094;7.970;2023-06-22T04:00:42;20.70;1.00
2409;DHT22;8463;48.094;7.970;2023-06-22T04:03:07;20.70;1.00
2409;DHT22;8463;48.094;7.970;2023-06-22T04:05:33;20.70;1.00
2409;DHT22;8463;48.094;7.970;2023-06-22T04:10:25;21.10;1.00
2409;DHT22;8463;48.094;7.970;2023-06-22T04:12:53;21.40;1.00
2409;DHT22;8463;48.094;7.970;2023-06-22T04:15:19;21.70;1.00
2409;DHT22;8463;48.094;7.970;2023-06-22T04:17:47;21.80;1.00
2409;DHT22;8463;48.094;7.970;2023-06-22T04:20:13;21.80;1.00
2409;DHT22;8463;48.094;7.970;2023-06-22T04:22:39;21.90;1.00
2409;DHT22;8463;48.094;7.970;2023-06-22T04:25:06;21.90;1.00
2409;DHT22;8463;48.094;7.970;2023-06-22T04:27:33;21.70;1.00
2409;DHT22;8463;48.094;7.970;2023-06-22T04:30:08;21.80;1.00
2409;DHT22;8463;48.094;7.970;2023-06-22T04:35:05;21.90;1.00
2409;DHT22;8463;48.094;7.970;2023-06-22T04:37:32;22.10;1.00
2409;DHT22;8463;48.094;7.970;2023-06-22T04:39:57;22.20;1.00
2409;DHT22;8463;48.094;7.970;2023-06-22T04:42:25;22.10;1.00
2409;DHT22;8463;48.094;7.970;2023-06-22T04:44:51;22.40;1.00
2409;DHT22;8463;48.094;7.970;2023-06-22T04:47:16;22.50;1.00
2409;DHT22;8463;48.094;7.970;2023-06-22T04:49:42;22.50;1.00
2409;DHT22;8463;48.094;7.970;2023-06-22T04:52:11;22.50;1.00
2409;DHT22;8463;48.094;7.970;2023-06-22T04:54:39;22.40;1.00
2409;DHT22;8463;48.094;7.970;2023-06-22T04:57:07;22.00;1.00
2409;DHT22;8463;48.094;7.970;2023-06-22T04:59:37;21.70;1.00
2409;DHT22;8463;48.094;7.970;2023-06-22T05:02:05;21.50;1.00
2409;DHT22;8463;48.094;7.970;2023-06-22T05:04:34;21.50;1.00
2409;DHT22;8463;48.094;7.970;2023-06-22T05:07:02;21.40;1.00
2409;DHT22;8463;48.094;7.970;2023-06-22T05:09:37;21.50;1.00
2409;DHT22;8463;48.094;7.970;2023-06-22T05:12:03;21.60;1.00
2409;DHT22;8463;48.094;7.970;2023-06-22T05:14:30;21.70;1.00
2409;DHT22;8463;48.094;7.970;2023-06-22T05:16:56;21.60;1.00
2409;DHT22;8463;48.094;7.970;2023-06-22T05:19:26;21.50;1.00
2409;DHT22;8463;48.094;7.970;2023-06-22T05:21:58;21.40;1.00
2409;DHT22;8463;48.094;7.970;2023-06-22T05:24:24;21.30;1.00
2409;DHT22;8463;48.094;7.970;2023-06-22T05:26:51;21.20;1.00
2409;DHT22;8463;48.094;7.970;2023-06-22T05:29:16;21.00;1.00
2409;DHT22;8463;48.094;7.970;2023-06-22T05:31:43;21.00;1.00
2409;DHT22;8463;48.094;7.970;2023-06-22T05:34:08;21.00;1.00
2409;DHT22;8463;48.094;7.970;2023-06-22T05:36:34;21.10;1.00
2409;DHT22;8463;48.094;7.970;2023-06-22T05:39:11;21.20;1.00
2409;DHT22;8463;48.094;7.970;2023-06-22T05:41:38;21.00;1.00
2409;DHT22;8463;48.094;7.970;2023-06-22T05:44:04;21.00;1.00
2409;DHT22;8463;48.094;7.970;2023-06-22T05:46:31;21.00;1.00
2409;DHT22;8463;48.094;7.970;2023-06-22T05:48:57;21.20;1.00
2409;DHT22;8463;48.094;7.970;2023-06-22T05:51:22;21.20;1.00
2409;DHT22;8463;48.094;7.970;2023-06-22T05:53:48;21.20;1.00
2409;DHT22;8463;48.094;7.970;2023-06-22T05:56:15;21.20;1.00
2409;DHT22;8463;48.094;7.970;2023-06-22T05:58:41;21.40;1.00
2409;DHT22;8463;48.094;7.970;2023-06-22T06:01:07;21.50;1.00
2409;DHT22;8463;48.094;7.970;2023-06-22T06:03:33;21.60;1.00
2409;DHT22;8463;48.094;7.970;2023-06-22T06:06:01;21.90;1.00
2409;DHT22;8463;48.094;7.970;2023-06-22T06:08:28;21.90;1.00
2409;DHT22;8463;48.094;7.970;2023-06-22T06:10:53;22.00;1.00
2409;DHT22;8463;48.094;7.970;2023-06-22T06:13:20;22.20;1.00
2409;DHT22;8463;48.094;7.970;2023-06-22T06:15:46;22.30;1.00
2409;DHT22;8463;48.094;7.970;2023-06-22T06:18:11;22.20;1.00
2409;DHT22;8463;48.094;7.970;2023-06-22T06:20:37;22.00;1.00
2409;DHT22;8463;48.094;7.970;2023-06-22T06:23:03;21.90;1.00
2409;DHT22;8463;48.094;7.970;2023-06-22T06:25:34;21.80;1.00
2409;DHT22;8463;48.094;7.970;2023-06-22T06:28:00;21.60;1.00
2409;DHT22;8463;48.094;7.970;2023-06-22T06:30:28;21.40;1.00
2409;DHT22;8463;48.094;7.970;2023-06-22T06:32:57;21.50;1.00
2409;DHT22;8463;48.094;7.970;2023-06-22T06:35:23;21.50;1.00
2409;DHT22;8463;48.094;7.970;2023-06-22T06:37:50;21.50;1.00
2409;DHT22;8463;48.094;7.970;2023-06-22T06:40:17;21.50;1.00
2409;DHT22;8463;48.094;7.970;2023-06-22T06:42:44;21.70;1.00
2409;DHT22;8463;48.094;7.970;2023-06-22T06:45:28;22.00;1.00
2409;DHT22;8463;48.094;7.970;2023-06-22T06:47:56;22.40;1.00
2409;DHT22;8463;48.094;7.970;2023-06-22T06:50:22;22.50;1.00
2409;DHT22;8463;48.094;7.970;2023-06-22T06:52:48;22.40;1.00
2409;DHT22;8463;48.094;7.970;2023-06-22T06:55:15;22.40;1.00
2409;DHT22;8463;48.094;7.970;2023-06-22T06:57:41;22.40;1.00
2409;DHT22;8463;48.094;7.970;2023-06-22T07:00:12;22.20;1.00
2409;DHT22;8463;48.094;7.970;2023-06-22T07:02:45;21.90;1.00
2409;DHT22;8463;48.094;7.970;2023-06-22T07:05:12;21.70;1.00
2409;DHT22;8463;48.094;7.970;2023-06-22T07:07:38;21.70;1.00
2409;DHT22;8463;48.094;7.970;2023-06-22T07:10:11;21.70;1.00
2409;DHT22;8463;48.094;7.970;2023-06-22T07:12:36;21.70;1.00
2409;DHT22;8463;48.094;7.970;2023-06-22T07:15:07;21.70;1.00
2409;DHT22;8463;48.094;7.970;2023-06-22T07:17:37;21.90;1.00
2409;DHT22;8463;48.094;7.970;2023-06-22T07:20:05;22.10;1.00
2409;DHT22;8463;48.094;7.970;2023-06-22T07:22:44;22.20;1.00
2409;DHT22;8463;48.094;7.970;2023-06-22T07:25:13;22.30;1.00
2409;DHT22;8463;48.094;7.970;2023-06-22T07:28:05;22.50;1.00
2409;DHT22;8463;48.094;7.970;2023-06-22T07:30:32;22.90;1.00
2409;DHT22;8463;48.094;7.970;2023-06-22T07:33:04;23.40;1.00
2409;DHT22;8463;48.094;7.970;2023-06-22T07:35:33;23.70;1.00
2409;DHT22;8463;48.094;7.970;2023-06-22T07:38:00;24.00;1.00
2409;DHT22;8463;48.094;7.970;2023-06-22T07:40:26;23.90;1.00
2409;DHT22;8463;48.094;7.970;2023-06-22T07:42:52;23.70;1.00
2409;DHT22;8463;48.094;7.970;2023-06-22T07:45:18;23.60;1.00
2409;DHT22;8463;48.094;7.970;2023-06-22T07:47:44;23.60;1.00
2409;DHT22;8463;48.094;7.970;2023-06-22T07:50:10;23.40;1.00
2409;DHT22;8463;48.094;7.970;2023-06-22T07:52:35;23.30;1.00
2409;DHT22;8463;48.094;7.970;2023-06-22T07:55:02;23.10;1.00
2409;DHT22;8463;48.094;7.970;2023-06-22T07:57:28;23.20;1.00
2409;DHT22;8463;48.094;7.970;2023-06-22T08:00:16;23.30;1.00
2409;DHT22;8463;48.094;7.970;2023-06-22T08:02:44;23.30;1.00
2409;DHT22;8463;48.094;7.970;2023-06-22T08:05:11;23.20;1.00
2409;DHT22;8463;48.094;7.970;2023-06-22T08:07:38;21.60;1.00
2409;DHT22;8463;48.094;7.970;2023-06-22T08:10:05;23.30;1.00
2409;DHT22;8463;48.094;7.970;2023-06-22T08:12:31;23.60;1.00
2409;DHT22;8463;48.094;7.970;2023-06-22T08:14:57;23.90;1.00
2409;DHT22;8463;48.094;7.970;2023-06-22T08:17:24;24.10;1.00
2409;DHT22;8463;48.094;7.970;2023-06-22T08:19:52;24.10;1.00
2409;DHT22;8463;48.094;7.970;2023-06-22T08:22:18;24.30;1.00
2409;DHT22;8463;48.094;7.970;2023-06-22T08:24:44;24.10;1.00
2409;DHT22;8463;48.094;7.970;2023-06-22T08:27:10;23.90;1.00
2409;DHT22;8463;48.094;7.970;2023-06-22T08:29:40;24.00;1.00
2409;DHT22;8463;48.094;7.970;2023-06-22T08:32:08;24.10;1.00
2409;DHT22;8463;48.094;7.970;2023-06-22T08:34:35;24.10;1.00
2409;DHT22;8463;48.094;7.970;2023-06-22T08:37:00;24.10;1.00
2409;DHT22;8463;48.094;7.970;2023-06-22T08:39:26;24.20;1.00
2409;DHT22;8463;48.094;7.970;2023-06-22T08:41:53;24.20;1.00
2409;DHT22;8463;48.094;7.970;2023-06-22T08:44:19;24.50;1.00
2409;DHT22;8463;48.094;7.970;2023-06-22T08:46:45;24.90;1.00
2409;DHT22;8463;48.094;7.970;2023-06-22T08:49:16;24.90;1.00
2409;DHT22;8463;48.094;7.970;2023-06-22T08:51:42;25.00;1.00
2409;DHT22;8463;48.094;7.970;2023-06-22T08:54:09;25.10;1.00
2409;DHT22;8463;48.094;7.970;2023-06-22T08:56:36;25.30;1.00
2409;DHT22;8463;48.094;7.970;2023-06-22T08:59:02;25.50;1.00
2409;DHT22;8463;48.094;7.970;2023-06-22T09:01:30;25.70;1.00
2409;DHT22;8463;48.094;7.970;2023-06-22T09:03:56;25.90;1.00
2409;DHT22;8463;48.094;7.970;2023-06-22T09:06:23;26.10;1.00
2409;DHT22;8463;48.094;7.970;2023-06-22T09:08:50;26.30;1.00
2409;DHT22;8463;48.094;7.970;2023-06-22T09:11:15;26.30;1.00
2409;DHT22;8463;48.094;7.970;2023-06-22T09:13:43;26.40;1.00
2409;DHT22;8463;48.094;7.970;2023-06-22T09:16:10;26.40;1.00
2409;DHT22;8463;48.094;7.970;2023-06-22T09:18:38;26.50;1.00
2409;DHT22;8463;48.094;7.970;2023-06-22T09:21:06;26.50;1.00
2409;DHT22;8463;48.094;7.970;2023-06-22T09:23:32;26.60;1.00
2409;DHT22;8463;48.094;7.970;2023-06-22T09:25:58;26.70;1.00
2409;DHT22;8463;48.094;7.970;2023-06-22T09:28:23;26.90;1.00
2409;DHT22;8463;48.094;7.970;2023-06-22T09:30:49;27.20;1.00
2409;DHT22;8463;48.094;7.970;2023-06-22T09:33:21;27.20;1.00
2409;DHT22;8463;48.094;7.970;2023-06-22T09:35:52;27.40;1.00
2409;DHT22;8463;48.094;7.970;2023-06-22T09:38:18;27.60;1.00
2409;DHT22;8463;48.094;7.970;2023-06-22T09:40:43;27.70;1.00
2409;DHT22;8463;48.094;7.970;2023-06-22T09:43:10;27.80;1.00
2409;DHT22;8463;48.094;7.970;2023-06-22T09:45:38;28.00;1.00
2409;DHT22;8463;48.094;7.970;2023-06-22T09:48:03;28.20;1.00
2409;DHT22;8463;48.094;7.970;2023-06-22T09:50:29;28.30;1.00
2409;DHT22;8463;48.094;7.970;2023-06-22T09:53:01;28.50;1.00
2409;DHT22;8463;48.094;7.970;2023-06-22T09:55:26;28.60;1.00
2409;DHT22;8463;48.094;7.970;2023-06-22T09:57:52;28.50;1.00
2409;DHT22;8463;48.094;7.970;2023-06-22T10:00:18;28.50;1.00
2409;DHT22;8463;48.094;7.970;2023-06-22T10:02:44;28.70;1.00
2409;DHT22;8463;48.094;7.970;2023-06-22T10:05:10;28.80;1.00
2409;DHT22;8463;48.094;7.970;2023-06-22T10:07:36;29.00;1.00
2409;DHT22;8463;48.094;7.970;2023-06-22T10:10:12;29.00;1.00
2409;DHT22;8463;48.094;7.970;2023-06-22T10:12:42;28.90;1.00
2409;DHT22;8463;48.094;7.970;2023-06-22T10:15:09;28.90;1.00
2409;DHT22;8463;48.094;7.970;2023-06-22T10:17:38;29.00;1.00
2409;DHT22;8463;48.094;7.970;2023-06-22T10:20:05;29.10;1.00
2409;DHT22;8463;48.094;7.970;2023-06-22T10:22:37;29.00;1.00
2409;DHT22;8463;48.094;7.970;2023-06-22T10:25:03;28.90;1.00
2409;DHT22;8463;48.094;7.970;2023-06-22T10:27:30;28.90;1.00
2409;DHT22;8463;48.094;7.970;2023-06-22T10:29:56;29.00;1.00
2409;DHT22;8463;48.094;7.970;2023-06-22T10:32:22;29.20;1.00
2409;DHT22;8463;48.094;7.970;2023-06-22T10:34:48;29.50;1.00
2409;DHT22;8463;48.094;7.970;2023-06-22T10:37:13;29.60;1.00
2409;DHT22;8463;48.094;7.970;2023-06-22T10:39:39;29.70;1.00
2409;DHT22;8463;48.094;7.970;2023-06-22T10:42:05;29.70;1.00
2409;DHT22;8463;48.094;7.970;2023-06-22T10:44:30;29.50;1.00
2409;DHT22;8463;48.094;7.970;2023-06-22T10:46:56;29.50;1.00
2409;DHT22;8463;48.094;7.970;2023-06-22T10:49:22;29.40;1.00
2409;DHT22;8463;48.094;7.970;2023-06-22T10:51:48;29.20;1.00
2409;DHT22;8463;48.094;7.970;2023-06-22T10:54:13;29.00;1.00
2409;DHT22;8463;48.094;7.970;2023-06-22T10:56:41;28.80;1.00
2409;DHT22;8463;48.094;7.970;2023-06-22T10:59:07;28.50;1.00
2409;DHT22;8463;48.094;7.970;2023-06-22T11:01:36;28.20;1.00
2409;DHT22;8463;48.094;7.970;2023-06-22T11:04:05;27.90;1.00
2409;DHT22;8463;48.094;7.970;2023-06-22T11:06:30;27.80;1.00
2409;DHT22;8463;48.094;7.970;2023-06-22T11:08:56;27.80;1.00
2409;DHT22;8463;48.094;7.970;2023-06-22T11:11:23;27.90;1.00
2409;DHT22;8463;48.094;7.970;2023-06-22T11:13:54;28.00;1.00
2409;DHT22;8463;48.094;7.970;2023-06-22T11:16:20;28.30;1.00
2409;DHT22;8463;48.094;7.970;2023-06-22T11:18:46;28.20;1.00
2409;DHT22;8463;48.094;7.970;2023-06-22T11:21:11;28.20;1.00
2409;DHT22;8463;48.094;7.970;2023-06-22T11:23:37;28.40;1.00
2409;DHT22;8463;48.094;7.970;2023-06-22T11:26:02;28.50;1.00
2409;DHT22;8463;48.094;7.970;2023-06-22T11:28:28;28.80;1.00
2409;DHT22;8463;48.094;7.970;2023-06-22T11:30:54;28.90;1.00
2409;DHT22;8463;48.094;7.970;2023-06-22T11:33:20;29.00;1.00
2409;DHT22;8463;48.094;7.970;2023-06-22T11:35:48;29.20;1.00
2409;DHT22;8463;48.094;7.970;2023-06-22T11:38:16;29.10;1.00
2409;DHT22;8463;48.094;7.970;2023-06-22T11:40:44;29.40;1.00
2409;DHT22;8463;48.094;7.970;2023-06-22T11:43:10;29.30;1.00
2409;DHT22;8463;48.094;7.970;2023-06-22T11:45:35;29.20;1.00
2409;DHT22;8463;48.094;7.970;2023-06-22T11:48:01;29.10;1.00
2409;DHT22;8463;48.094;7.970;2023-06-22T11:50:27;29.00;1.00
2409;DHT22;8463;48.094;7.970;2023-06-22T11:52:58;28.80;1.00
2409;DHT22;8463;48.094;7.970;2023-06-22T11:55:23;28.60;1.00
2409;DHT22;8463;48.094;7.970;2023-06-22T11:57:56;28.60;1.00
2409;DHT22;8463;48.094;7.970;2023-06-22T12:00:25;28.60;1.00
2409;DHT22;8463;48.094;7.970;2023-06-22T12:02:51;28.60;1.00
2409;DHT22;8463;48.094;7.970;2023-06-22T12:05:19;28.50;1.00
2409;DHT22;8463;48.094;7.970;2023-06-22T12:07:46;28.50;1.00
2409;DHT22;8463;48.094;7.970;2023-06-22T12:10:13;28.50;1.00
2409;DHT22;8463;48.094;7.970;2023-06-22T12:12:44;28.50;1.00
2409;DHT22;8463;48.094;7.970;2023-06-22T12:15:12;28.40;1.00
2409;DHT22;8463;48.094;7.970;2023-06-22T12:17:38;28.40;1.00
2409;DHT22;8463;48.094;7.970;2023-06-22T12:20:08;28.40;1.00
2409;DHT22;8463;48.094;7.970;2023-06-22T12:22:34;28.50;1.00
2409;DHT22;8463;48.094;7.970;2023-06-22T12:25:00;28.50;1.00
2409;DHT22;8463;48.094;7.970;2023-06-22T12:27:28;28.70;1.00
2409;DHT22;8463;48.094;7.970;2023-06-22T12:29:56;28.80;1.00
2409;DHT22;8463;48.094;7.970;2023-06-22T12:32:21;28.90;1.00
2409;DHT22;8463;48.094;7.970;2023-06-22T12:34:47;28.90;1.00
2409;DHT22;8463;48.094;7.970;2023-06-22T12:37:13;28.90;1.00
2409;DHT22;8463;48.094;7.970;2023-06-22T12:39:41;28.70;1.00
2409;DHT22;8463;48.094;7.970;2023-06-22T12:42:07;28.60;1.00
2409;DHT22;8463;48.094;7.970;2023-06-22T12:44:40;28.50;1.00
2409;DHT22;8463;48.094;7.970;2023-06-22T12:47:06;28.30;1.00
2409;DHT22;8463;48.094;7.970;2023-06-22T12:49:37;28.30;1.00
2409;DHT22;8463;48.094;7.970;2023-06-22T12:52:03;28.10;1.00
2409;DHT22;8463;48.094;7.970;2023-06-22T12:54:29;27.90;1.00
2409;DHT22;8463;48.094;7.970;2023-06-22T12:56:56;27.90;1.00
2409;DHT22;8463;48.094;7.970;2023-06-22T13:01:48;27.90;1.00
2409;DHT22;8463;48.094;7.970;2023-06-22T13:04:14;27.80;1.00
2409;DHT22;8463;48.094;7.970;2023-06-22T13:06:41;27.80;1.00
2409;DHT22;8463;48.094;7.970;2023-06-22T13:09:07;27.80;1.00
2409;DHT22;8463;48.094;7.970;2023-06-22T13:11:34;27.70;1.00
2409;DHT22;8463;48.094;7.970;2023-06-22T13:13:59;27.70;1.00
2409;DHT22;8463;48.094;7.970;2023-06-22T13:16:25;27.60;1.00
2409;DHT22;8463;48.094;7.970;2023-06-22T13:18:51;27.60;1.00
2409;DHT22;8463;48.094;7.970;2023-06-22T13:21:16;27.60;1.00
2409;DHT22;8463;48.094;7.970;2023-06-22T13:23:42;27.60;1.00
2409;DHT22;8463;48.094;7.970;2023-06-22T13:26:09;25.90;1.00
2409;DHT22;8463;48.094;7.970;2023-06-22T13:28:37;27.60;1.00
2409;DHT22;8463;48.094;7.970;2023-06-22T13:31:02;27.60;1.00
2409;DHT22;8463;48.094;7.970;2023-06-22T13:33:28;27.70;1.00
2409;DHT22;8463;48.094;7.970;2023-06-22T13:38:20;27.80;1.00
2409;DHT22;8463;48.094;7.970;2023-06-22T13:40:51;27.70;1.00
2409;DHT22;8463;48.094;7.970;2023-06-22T13:43:17;27.60;1.00
2409;DHT22;8463;48.094;7.970;2023-06-22T13:45:43;27.60;1.00
2409;DHT22;8463;48.094;7.970;2023-06-22T13:48:09;27.50;1.00
2409;DHT22;8463;48.094;7.970;2023-06-22T13:50:34;27.60;1.00
2409;DHT22;8463;48.094;7.970;2023-06-22T13:53:00;27.70;1.00
2409;DHT22;8463;48.094;7.970;2023-06-22T13:55:26;27.70;1.00
2409;DHT22;8463;48.094;7.970;2023-06-22T13:57:52;27.60;1.00
2409;DHT22;8463;48.094;7.970;2023-06-22T14:00:24;27.50;1.00
2409;DHT22;8463;48.094;7.970;2023-06-22T14:02:49;27.40;1.00
2409;DHT22;8463;48.094;7.970;2023-06-22T14:05:16;27.40;1.00
2409;DHT22;8463;48.094;7.970;2023-06-22T14:07:46;27.30;1.00
2409;DHT22;8463;48.094;7.970;2023-06-22T14:10:12;27.20;1.00
2409;DHT22;8463;48.094;7.970;2023-06-22T14:12:41;27.10;1.00
2409;DHT22;8463;48.094;7.970;2023-06-22T14:15:06;26.90;1.00
2409;DHT22;8463;48.094;7.970;2023-06-22T14:19:58;26.80;1.00
2409;DHT22;8463;48.094;7.970;2023-06-22T14:22:24;26.80;1.00
2409;DHT22;8463;48.094;7.970;2023-06-22T14:24:49;26.80;1.00
2409;DHT22;8463;48.094;7.970;2023-06-22T14:27:15;26.80;1.00
2409;DHT22;8463;48.094;7.970;2023-06-22T14:29:45;26.80;1.00
2409;DHT22;8463;48.094;7.970;2023-06-22T14:34:36;26.90;1.00
2409;DHT22;8463;48.094;7.970;2023-06-22T14:37:08;26.80;1.00
2409;DHT22;8463;48.094;7.970;2023-06-22T14:44:36;27.00;1.00
2409;DHT22;8463;48.094;7.970;2023-06-22T14:49:27;26.90;1.00
2409;DHT22;8463;48.094;7.970;2023-06-22T14:52:02;27.00;1.00
2409;DHT22;8463;48.094;7.970;2023-06-22T14:54:28;27.00;1.00
2409;DHT22;8463;48.094;7.970;2023-06-22T14:56:59;27.20;1.00
2409;DHT22;8463;48.094;7.970;2023-06-22T14:59:25;27.40;1.00
2409;DHT22;8463;48.094;7.970;2023-06-22T15:01:50;27.50;1.00
2409;DHT22;8463;48.094;7.970;2023-06-22T15:04:16;27.40;1.00
2409;DHT22;8463;48.094;7.970;2023-06-22T15:06:47;27.30;1.00
2409;DHT22;8463;48.094;7.970;2023-06-22T15:11:39;27.30;1.00
2409;DHT22;8463;48.094;7.970;2023-06-22T15:14:05;27.20;1.00
2409;DHT22;8463;48.094;7.970;2023-06-22T15:16:31;27.20;1.00
2409;DHT22;8463;48.094;7.970;2023-06-22T15:19:01;27.20;1.00
2409;DHT22;8463;48.094;7.970;2023-06-22T15:21:27;27.20;1.00
2409;DHT22;8463;48.094;7.970;2023-06-22T15:23:53;27.40;1.00
2409;DHT22;8463;48.094;7.970;2023-06-22T15:26:20;27.60;1.00
2409;DHT22;8463;48.094;7.970;2023-06-22T15:28:52;27.70;1.00
2409;DHT22;8463;48.094;7.970;2023-06-22T15:31:17;27.70;1.00
2409;DHT22;8463;48.094;7.970;2023-06-22T15:33:48;27.80;1.00
2409;DHT22;8463;48.094;7.970;2023-06-22T15:36:15;27.90;1.00
2409;DHT22;8463;48.094;7.970;2023-06-22T15:38:40;28.00;1.00
2409;DHT22;8463;48.094;7.970;2023-06-22T15:41:06;28.00;1.00
2409;DHT22;8463;48.094;7.970;2023-06-22T15:43:32;28.00;1.00
2409;DHT22;8463;48.094;7.970;2023-06-22T15:45:57;28.00;1.00
2409;DHT22;8463;48.094;7.970;2023-06-22T15:48:23;27.80;1.00
2409;DHT22;8463;48.094;7.970;2023-06-22T15:50:49;27.70;1.00
2409;DHT22;8463;48.094;7.970;2023-06-22T15:53:15;27.70;1.00
2409;DHT22;8463;48.094;7.970;2023-06-22T15:55:41;27.60;1.00
2409;DHT22;8463;48.094;7.970;2023-06-22T15:58:07;27.60;1.00
2409;DHT22;8463;48.094;7.970;2023-06-22T16:00:40;27.60;1.00
2409;DHT22;8463;48.094;7.970;2023-06-22T16:03:05;27.60;1.00
2409;DHT22;8463;48.094;7.970;2023-06-22T16:05:31;27.80;1.00
2409;DHT22;8463;48.094;7.970;2023-06-22T16:08:00;27.70;1.00
2409;DHT22;8463;48.094;7.970;2023-06-22T16:10:25;27.60;1.00
2409;DHT22;8463;48.094;7.970;2023-06-22T16:12:51;27.50;1.00
2409;DHT22;8463;48.094;7.970;2023-06-22T16:15:17;27.40;1.00
2409;DHT22;8463;48.094;7.970;2023-06-22T16:17:45;27.40;1.00
2409;DHT22;8463;48.094;7.970;2023-06-22T16:20:11;27.30;1.00
2409;DHT22;8463;48.094;7.970;2023-06-22T16:22:37;27.30;1.00
2409;DHT22;8463;48.094;7.970;2023-06-22T16:25:07;27.30;1.00
2409;DHT22;8463;48.094;7.970;2023-06-22T16:30:01;27.10;1.00
2409;DHT22;8463;48.094;7.970;2023-06-22T16:32:27;27.10;1.00
2409;DHT22;8463;48.094;7.970;2023-06-22T16:34:52;27.10;1.00
2409;DHT22;8463;48.094;7.970;2023-06-22T16:37:18;27.10;1.00
2409;DHT22;8463;48.094;7.970;2023-06-22T16:39:44;27.00;1.00
2409;DHT22;8463;48.094;7.970;2023-06-22T16:42:09;27.00;1.00
2409;DHT22;8463;48.094;7.970;2023-06-22T16:44:38;26.90;1.00
2409;DHT22;8463;48.094;7.970;2023-06-22T16:47:07;26.90;1.00
2409;DHT22;8463;48.094;7.970;2023-06-22T16:49:33;26.80;1.00
2409;DHT22;8463;48.094;7.970;2023-06-22T16:52:01;26.80;1.00
2409;DHT22;8463;48.094;7.970;2023-06-22T16:54:29;26.60;1.00
2409;DHT22;8463;48.094;7.970;2023-06-22T16:56:58;26.60;1.00
2409;DHT22;8463;48.094;7.970;2023-06-22T16:59:24;26.50;1.00
2409;DHT22;8463;48.094;7.970;2023-06-22T17:01:53;26.30;1.00
2409;DHT22;8463;48.094;7.970;2023-06-22T17:04:25;26.20;1.00
2409;DHT22;8463;48.094;7.970;2023-06-22T17:07:03;26.30;1.00